sensor_id;sensor_type;location;lat;lon;timestamp;temperature;humidity
2300;DHT22;1158;48.750;9.078;2022-07-23T00:02:23;22.90;99.90
2300;DHT22;1158;48.750;9.078;2022-07-23T00:04:49;22.90;99.90
2300;DHT22;1158;48.750;9.078;2022-07-23T00:07:16;22.80;99.90
2300;DHT22;1158;48.750;9.078;2022-07-23T00:09:43;22.80;99.90
2300;DHT22;1158;48.750;9.078;2022-07-23T00:12:09;22.70;99.90
2300;DHT22;1158;48.750;9.078;2022-07-23T00:14:37;22.60;99.90
2300;DHT22;1158;48.750;9.078;2022-07-23T00:17:04;22.60;99.90
2300;DHT22;1158;48.750;9.078;2022-07-23T00:19:31;22.50;99.90
2300;DHT22;1158;48.750;9.078;2022-07-23T00:21:57;22.50;99.90
2300;DHT22;1158;48.750;9.078;2022-07-23T00:24:24;22.40;99.90
2300;DHT22;1158;48.750;9.078;2022-07-23T00:26:51;22.40;99.90
2300;DHT22;1158;48.750;9.078;2022-07-23T00:29:17;22.30;99.90
2300;DHT22;1158;48.750;9.078;2022-07-23T00:31:45;22.30;99.90
2300;DHT22;1158;48.750;9.078;2022-07-23T00:34:12;22.20;99.90
2300;DHT22;1158;48.750;9.078;2022-07-23T00:36:39;22.10;99.90
2300;DHT22;1158;48.750;9.078;2022-07-23T00:39:06;21.90;99.90
2300;DHT22;1158;48.750;9.078;2022-07-23T00:41:33;21.50;99.90
2300;DHT22;1158;48.750;9.078;2022-07-23T00:44:14;21.20;99.90
2300;DHT22;1158;48.750;9.078;2022-07-23T00:46:46;21.00;99.90
2300;DHT22;1158;48.750;9.078;2022-07-23T00:49:13;20.70;99.90
2300;DHT22;1158;48.750;9.078;2022-07-23T00:51:40;20.50;99.90
2300;DHT22;1158;48.750;9.078;2022-07-23T00:54:07;20.40;99.90
2300;DHT22;1158;48.750;9.078;2022-07-23T00:56:34;20.30;99.90
2300;DHT22;1158;48.750;9.078;2022-07-23T00:59:01;20.30;99.90
2300;DHT22;1158;48.750;9.078;2022-07-23T01:01:28;20.30;99.90
2300;DHT22;1158;48.750;9.078;2022-07-23T01:03:56;20.40;99.90
2300;DHT22;1158;48.750;9.078;2022-07-23T01:06:23;20.40;99.90
2300;DHT22;1158;48.750;9.078;2022-07-23T01:08:50;20.40;99.90
2300;DHT22;1158;48.750;9.078;2022-07-23T01:11:18;20.30;99.90
2300;DHT22;1158;48.750;9.078;2022-07-23T01:13:45;20.30;99.90
2300;DHT22;1158;48.750;9.078;2022-07-23T01:16:11;20.30;99.90
2300;DHT22;1158;48.750;9.078;2022-07-23T01:18:38;20.30;99.90
2300;DHT22;1158;48.750;9.078;2022-07-23T01:21:06;20.30;99.90
2300;DHT22;1158;48.750;9.078;2022-07-23T01:23:36;20.30;99.90
2300;DHT22;1158;48.750;9.078;2022-07-23T01:26:03;20.40;99.90
2300;DHT22;1158;48.750;9.078;2022-07-23T01:28:29;20.40;99.90
2300;DHT22;1158;48.750;9.078;2022-07-23T01:30:56;20.40;99.90
2300;DHT22;1158;48.750;9.078;2022-07-23T01:33:23;20.40;99.90
2300;DHT22;1158;48.750;9.078;2022-07-23T01:35:50;20.50;99.90
2300;DHT22;1158;48.750;9.078;2022-07-23T01:38:16;20.40;99.90
2300;DHT22;1158;48.750;9.078;2022-07-23T01:40:44;20.40;99.90
2300;DHT22;1158;48.750;9.078;2022-07-23T01:43:11;20.40;99.90
2300;DHT22;1158;48.750;9.078;2022-07-23T01:45:38;20.30;99.90
2300;DHT22;1158;48.750;9.078;2022-07-23T01:48:05;20.10;99.90
2300;DHT22;1158;48.750;9.078;2022-07-23T01:50:32;20.00;99.90
2300;DHT22;1158;48.750;9.078;2022-07-23T01:52:59;20.00;99.90
2300;DHT22;1158;48.750;9.078;2022-07-23T01:55:25;20.00;99.90
2300;DHT22;1158;48.750;9.078;2022-07-23T01:57:53;19.90;99.90
2300;DHT22;1158;48.750;9.078;2022-07-23T02:00:20;19.80;99.90
2300;DHT22;1158;48.750;9.078;2022-07-23T02:02:47;19.80;99.90
2300;DHT22;1158;48.750;9.078;2022-07-23T02:05:13;19.80;99.90
2300;DHT22;1158;48.750;9.078;2022-07-23T02:07:40;19.80;99.90
2300;DHT22;1158;48.750;9.078;2022-07-23T02:10:08;19.80;99.90
2300;DHT22;1158;48.750;9.078;2022-07-23T02:12:34;19.70;99.90
2300;DHT22;1158;48.750;9.078;2022-07-23T02:15:03;19.70;99.90
2300;DHT22;1158;48.750;9.078;2022-07-23T02:17:30;19.70;99.90
2300;DHT22;1158;48.750;9.078;2022-07-23T02:19:57;19.60;99.90
2300;DHT22;1158;48.750;9.078;2022-07-23T02:22:23;19.60;99.90
2300;DHT22;1158;48.750;9.078;2022-07-23T02:24:50;19.50;99.90
2300;DHT22;1158;48.750;9.078;2022-07-23T02:27:17;19.40;99.90
2300;DHT22;1158;48.750;9.078;2022-07-23T02:29:43;19.40;99.90
2300;DHT22;1158;48.750;9.078;2022-07-23T02:32:11;19.40;99.90
2300;DHT22;1158;48.750;9.078;2022-07-23T02:34:38;19.40;99.90
2300;DHT22;1158;48.750;9.078;2022-07-23T02:37:05;19.40;99.90
2300;DHT22;1158;48.750;9.078;2022-07-23T02:39:34;19.40;99.90
2300;DHT22;1158;48.750;9.078;2022-07-23T02:42:00;19.30;99.90
2300;DHT22;1158;48.750;9.078;2022-07-23T02:44:27;19.30;99.90
2300;DHT22;1158;48.750;9.078;2022-07-23T02:46:54;19.20;99.90
2300;DHT22;1158;48.750;9.078;2022-07-23T02:49:22;19.20;99.90
2300;DHT22;1158;48.750;9.078;2022-07-23T02:51:49;19.30;99.90
2300;DHT22;1158;48.750;9.078;2022-07-23T02:54:16;19.40;99.90
2300;DHT22;1158;48.750;9.078;2022-07-23T02:56:43;19.30;99.90
2300;DHT22;1158;48.750;9.078;2022-07-23T02:59:09;19.30;99.90
2300;DHT22;1158;48.750;9.078;2022-07-23T03:01:37;19.30;99.90
2300;DHT22;1158;48.750;9.078;2022-07-23T03:04:04;19.30;99.90
2300;DHT22;1158;48.750;9.078;2022-07-23T03:06:32;19.40;99.90
2300;DHT22;1158;48.750;9.078;2022-07-23T03:08:59;19.40;99.90
2300;DHT22;1158;48.750;9.078;2022-07-23T03:11:25;19.40;99.90
2300;DHT22;1158;48.750;9.078;2022-07-23T03:13:52;19.40;99.90
2300;DHT22;1158;48.750;9.078;2022-07-23T03:16:19;19.40;99.90
2300;DHT22;1158;48.750;9.078;2022-07-23T03:18:45;19.40;99.90
2300;DHT22;1158;48.750;9.078;2022-07-23T03:21:12;19.40;99.90
2300;DHT22;1158;48.750;9.078;2022-07-23T03:23:40;19.30;99.90
2300;DHT22;1158;48.750;9.078;2022-07-23T03:26:07;19.30;99.90
2300;DHT22;1158;48.750;9.078;2022-07-23T03:28:34;19.30;99.90
2300;DHT22;1158;48.750;9.078;2022-07-23T03:31:01;19.30;99.90
2300;DHT22;1158;48.750;9.078;2022-07-23T03:33:27;19.30;99.90
2300;DHT22;1158;48.750;9.078;2022-07-23T03:35:54;19.30;99.90
2300;DHT22;1158;48.750;9.078;2022-07-23T03:38:21;19.20;99.90
2300;DHT22;1158;48.750;9.078;2022-07-23T03:40:49;19.20;99.90
2300;DHT22;1158;48.750;9.078;2022-07-23T03:43:16;19.10;99.90
2300;DHT22;1158;48.750;9.078;2022-07-23T03:45:42;19.20;99.90
2300;DHT22;1158;48.750;9.078;2022-07-23T03:48:09;19.00;99.90
2300;DHT22;1158;48.750;9.078;2022-07-23T03:50:36;18.90;99.90
2300;DHT22;1158;48.750;9.078;2022-07-23T03:53:03;18.90;99.90
2300;DHT22;1158;48.750;9.078;2022-07-23T03:55:30;18.80;99.90
2300;DHT22;1158;48.750;9.078;2022-07-23T03:57:58;18.70;99.90
2300;DHT22;1158;48.750;9.078;2022-07-23T04:00:24;18.70;99.90
2300;DHT22;1158;48.750;9.078;2022-07-23T04:02:51;18.70;99.90
2300;DHT22;1158;48.750;9.078;2022-07-23T04:05:18;18.60;99.90
2300;DHT22;1158;48.750;9.078;2022-07-23T04:07:45;18.60;99.90
2300;DHT22;1158;48.750;9.078;2022-07-23T04:10:11;18.70;99.90
2300;DHT22;1158;48.750;9.078;2022-07-23T04:12:38;18.80;99.90
2300;DHT22;1158;48.750;9.078;2022-07-23T04:15:07;18.80;99.90
2300;DHT22;1158;48.750;9.078;2022-07-23T04:17:34;18.80;99.90
2300;DHT22;1158;48.750;9.078;2022-07-23T04:20:01;18.80;99.90
2300;DHT22;1158;48.750;9.078;2022-07-23T04:22:28;18.80;99.90
2300;DHT22;1158;48.750;9.078;2022-07-23T04:24:54;18.90;99.90
2300;DHT22;1158;48.750;9.078;2022-07-23T04:27:21;18.90;99.90
2300;DHT22;1158;48.750;9.078;2022-07-23T04:29:47;19.10;99.90
2300;DHT22;1158;48.750;9.078;2022-07-23T04:32:16;19.20;99.90
2300;DHT22;1158;48.750;9.078;2022-07-23T04:34:42;19.20;99.90
2300;DHT22;1158;48.750;9.078;2022-07-23T04:37:09;19.40;99.90
2300;DHT22;1158;48.750;9.078;2022-07-23T04:39:35;19.40;99.90
2300;DHT22;1158;48.750;9.078;2022-07-23T04:42:02;19.50;99.90
2300;DHT22;1158;48.750;9.078;2022-07-23T04:44:29;19.40;99.90
2300;DHT22;1158;48.750;9.078;2022-07-23T04:46:56;19.50;99.90
2300;DHT22;1158;48.750;9.078;2022-07-23T04:49:24;19.50;99.90
2300;DHT22;1158;48.750;9.078;2022-07-23T04:51:50;19.50;99.90
2300;DHT22;1158;48.750;9.078;2022-07-23T04:54:17;19.60;99.90
2300;DHT22;1158;48.750;9.078;2022-07-23T04:56:44;19.80;99.90
2300;DHT22;1158;48.750;9.078;2022-07-23T04:59:10;19.80;99.90
2300;DHT22;1158;48.750;9.078;2022-07-23T05:01:37;19.90;99.90
2300;DHT22;1158;48.750;9.078;2022-07-23T05:04:04;20.00;99.90
2300;DHT22;1158;48.750;9.078;2022-07-23T05:06:32;20.10;99.90
2300;DHT22;1158;48.750;9.078;2022-07-23T05:08:58;20.20;99.90
2300;DHT22;1158;48.750;9.078;2022-07-23T05:11:25;20.30;99.90
2300;DHT22;1158;48.750;9.078;2022-07-23T05:13:52;20.30;99.90
2300;DHT22;1158;48.750;9.078;2022-07-23T05:16:18;20.30;99.90
2300;DHT22;1158;48.750;9.078;2022-07-23T05:18:45;20.40;99.90
2300;DHT22;1158;48.750;9.078;2022-07-23T05:21:12;20.50;99.90
2300;DHT22;1158;48.750;9.078;2022-07-23T05:23:40;20.70;99.90
2300;DHT22;1158;48.750;9.078;2022-07-23T05:26:06;20.80;99.90
2300;DHT22;1158;48.750;9.078;2022-07-23T05:28:33;21.00;99.90
2300;DHT22;1158;48.750;9.078;2022-07-23T05:31:00;21.20;99.90
2300;DHT22;1158;48.750;9.078;2022-07-23T05:33:26;21.40;99.90
2300;DHT22;1158;48.750;9.078;2022-07-23T05:35:53;21.60;99.90
2300;DHT22;1158;48.750;9.078;2022-07-23T05:38:20;21.80;99.90
2300;DHT22;1158;48.750;9.078;2022-07-23T05:40:48;21.70;99.90
2300;DHT22;1158;48.750;9.078;2022-07-23T05:43:14;21.80;99.90
2300;DHT22;1158;48.750;9.078;2022-07-23T05:45:41;21.80;99.90
2300;DHT22;1158;48.750;9.078;2022-07-23T05:48:08;21.80;99.90
2300;DHT22;1158;48.750;9.078;2022-07-23T05:50:34;22.00;99.90
2300;DHT22;1158;48.750;9.078;2022-07-23T05:53:01;21.80;99.90
2300;DHT22;1158;48.750;9.078;2022-07-23T05:55:28;22.00;99.90
2300;DHT22;1158;48.750;9.078;2022-07-23T05:57:58;22.10;99.90
2300;DHT22;1158;48.750;9.078;2022-07-23T06:00:26;22.00;99.90
2300;DHT22;1158;48.750;9.078;2022-07-23T06:02:53;22.20;99.90
2300;DHT22;1158;48.750;9.078;2022-07-23T06:05:20;22.10;99.90
2300;DHT22;1158;48.750;9.078;2022-07-23T06:07:46;22.20;99.90
2300;DHT22;1158;48.750;9.078;2022-07-23T06:10:13;22.30;99.90
2300;DHT22;1158;48.750;9.078;2022-07-23T06:12:40;22.30;99.90
2300;DHT22;1158;48.750;9.078;2022-07-23T06:15:09;22.30;99.90
2300;DHT22;1158;48.750;9.078;2022-07-23T06:17:36;22.40;99.90
2300;DHT22;1158;48.750;9.078;2022-07-23T06:20:05;22.40;99.90
2300;DHT22;1158;48.750;9.078;2022-07-23T06:22:32;22.40;99.90
2300;DHT22;1158;48.750;9.078;2022-07-23T06:24:59;22.50;99.90
2300;DHT22;1158;48.750;9.078;2022-07-23T06:27:25;22.80;99.90
2300;DHT22;1158;48.750;9.078;2022-07-23T06:29:52;23.90;99.90
2300;DHT22;1158;48.750;9.078;2022-07-23T06:32:20;24.60;99.90
2300;DHT22;1158;48.750;9.078;2022-07-23T06:34:47;24.20;99.90
2300;DHT22;1158;48.750;9.078;2022-07-23T06:37:13;23.70;99.90
2300;DHT22;1158;48.750;9.078;2022-07-23T06:39:40;23.60;99.90
2300;DHT22;1158;48.750;9.078;2022-07-23T06:42:07;23.50;99.90
2300;DHT22;1158;48.750;9.078;2022-07-23T06:44:33;23.60;99.90
2300;DHT22;1158;48.750;9.078;2022-07-23T06:47:00;23.90;99.90
2300;DHT22;1158;48.750;9.078;2022-07-23T06:49:28;24.00;99.90
2300;DHT22;1158;48.750;9.078;2022-07-23T06:51:55;23.70;99.90
2300;DHT22;1158;48.750;9.078;2022-07-23T06:54:21;23.50;99.90
2300;DHT22;1158;48.750;9.078;2022-07-23T06:56:48;23.50;99.90
2300;DHT22;1158;48.750;9.078;2022-07-23T06:59:15;23.40;99.90
2300;DHT22;1158;48.750;9.078;2022-07-23T07:01:42;23.40;99.90
2300;DHT22;1158;48.750;9.078;2022-07-23T07:04:08;23.30;99.90
2300;DHT22;1158;48.750;9.078;2022-07-23T07:06:36;23.20;99.90
2300;DHT22;1158;48.750;9.078;2022-07-23T07:09:03;23.20;99.90
2300;DHT22;1158;48.750;9.078;2022-07-23T07:11:30;23.20;99.90
2300;DHT22;1158;48.750;9.078;2022-07-23T07:13:57;23.00;99.90
2300;DHT22;1158;48.750;9.078;2022-07-23T07:16:23;22.60;99.90
2300;DHT22;1158;48.750;9.078;2022-07-23T07:18:50;22.70;99.90
2300;DHT22;1158;48.750;9.078;2022-07-23T07:21:17;22.60;99.90
2300;DHT22;1158;48.750;9.078;2022-07-23T07:23:45;22.40;99.90
2300;DHT22;1158;48.750;9.078;2022-07-23T07:26:11;22.10;99.90
2300;DHT22;1158;48.750;9.078;2022-07-23T07:28:38;21.70;99.90
2300;DHT22;1158;48.750;9.078;2022-07-23T07:31:05;21.50;99.90
2300;DHT22;1158;48.750;9.078;2022-07-23T07:33:32;21.40;99.90
2300;DHT22;1158;48.750;9.078;2022-07-23T07:35:58;21.30;99.90
2300;DHT22;1158;48.750;9.078;2022-07-23T07:38:26;21.60;99.90
2300;DHT22;1158;48.750;9.078;2022-07-23T07:40:54;22.70;99.90
2300;DHT22;1158;48.750;9.078;2022-07-23T07:43:20;23.40;99.90
2300;DHT22;1158;48.750;9.078;2022-07-23T07:45:47;24.70;99.90
2300;DHT22;1158;48.750;9.078;2022-07-23T07:48:13;25.10;99.90
2300;DHT22;1158;48.750;9.078;2022-07-23T07:50:40;25.90;99.90
2300;DHT22;1158;48.750;9.078;2022-07-23T07:53:07;26.50;99.90
2300;DHT22;1158;48.750;9.078;2022-07-23T07:55:34;26.20;99.90
2300;DHT22;1158;48.750;9.078;2022-07-23T07:58:02;26.90;99.90
2300;DHT22;1158;48.750;9.078;2022-07-23T08:00:29;27.10;99.90
2300;DHT22;1158;48.750;9.078;2022-07-23T08:02:56;27.10;99.90
2300;DHT22;1158;48.750;9.078;2022-07-23T08:05:24;26.60;99.90
2300;DHT22;1158;48.750;9.078;2022-07-23T08:07:51;26.10;99.90
2300;DHT22;1158;48.750;9.078;2022-07-23T08:10:18;25.90;99.90
2300;DHT22;1158;48.750;9.078;2022-07-23T08:12:46;26.00;99.90
2300;DHT22;1158;48.750;9.078;2022-07-23T08:15:17;25.50;99.90
2300;DHT22;1158;48.750;9.078;2022-07-23T08:17:45;25.10;99.90
2300;DHT22;1158;48.750;9.078;2022-07-23T08:20:13;24.50;99.90
2300;DHT22;1158;48.750;9.078;2022-07-23T08:22:45;23.90;99.90
2300;DHT22;1158;48.750;9.078;2022-07-23T08:25:12;23.50;99.90
2300;DHT22;1158;48.750;9.078;2022-07-23T08:27:39;23.30;99.90
2300;DHT22;1158;48.750;9.078;2022-07-23T08:30:07;23.40;99.90
2300;DHT22;1158;48.750;9.078;2022-07-23T08:32:47;23.50;99.90
2300;DHT22;1158;48.750;9.078;2022-07-23T08:35:14;23.60;99.90
2300;DHT22;1158;48.750;9.078;2022-07-23T08:37:41;23.70;99.90
2300;DHT22;1158;48.750;9.078;2022-07-23T08:40:09;24.30;99.90
2300;DHT22;1158;48.750;9.078;2022-07-23T08:42:36;25.10;99.90
2300;DHT22;1158;48.750;9.078;2022-07-23T08:45:04;26.20;99.90
2300;DHT22;1158;48.750;9.078;2022-07-23T08:47:35;26.90;99.90
2300;DHT22;1158;48.750;9.078;2022-07-23T08:50:03;27.50;99.90
2300;DHT22;1158;48.750;9.078;2022-07-23T08:52:30;27.40;99.90
2300;DHT22;1158;48.750;9.078;2022-07-23T08:54:57;28.10;99.90
2300;DHT22;1158;48.750;9.078;2022-07-23T08:57:24;28.90;99.90
2300;DHT22;1158;48.750;9.078;2022-07-23T08:59:50;28.70;99.90
2300;DHT22;1158;48.750;9.078;2022-07-23T09:02:18;28.70;99.90
2300;DHT22;1158;48.750;9.078;2022-07-23T09:04:46;29.20;99.90
2300;DHT22;1158;48.750;9.078;2022-07-23T09:07:13;29.40;99.90
2300;DHT22;1158;48.750;9.078;2022-07-23T09:09:39;29.60;99.90
2300;DHT22;1158;48.750;9.078;2022-07-23T09:12:08;30.30;99.90
2300;DHT22;1158;48.750;9.078;2022-07-23T09:14:40;30.10;99.90
2300;DHT22;1158;48.750;9.078;2022-07-23T09:17:11;30.10;99.80
2300;DHT22;1158;48.750;9.078;2022-07-23T09:19:38;30.00;99.60
2300;DHT22;1158;48.750;9.078;2022-07-23T09:22:24;30.30;99.70
2300;DHT22;1158;48.750;9.078;2022-07-23T09:25:06;30.50;98.40
2300;DHT22;1158;48.750;9.078;2022-07-23T09:27:51;30.00;98.70
2300;DHT22;1158;48.750;9.078;2022-07-23T09:30:19;29.80;97.60
2300;DHT22;1158;48.750;9.078;2022-07-23T09:33:07;29.40;98.30
2300;DHT22;1158;48.750;9.078;2022-07-23T09:35:48;29.00;98.30
2300;DHT22;1158;48.750;9.078;2022-07-23T09:38:17;29.60;97.70
2300;DHT22;1158;48.750;9.078;2022-07-23T09:40:45;29.70;97.40
2300;DHT22;1158;48.750;9.078;2022-07-23T09:43:13;30.30;97.00
2300;DHT22;1158;48.750;9.078;2022-07-23T09:45:39;30.60;95.80
2300;DHT22;1158;48.750;9.078;2022-07-23T09:48:14;30.60;96.10
2300;DHT22;1158;48.750;9.078;2022-07-23T09:50:43;30.70;95.80
2300;DHT22;1158;48.750;9.078;2022-07-23T09:53:10;30.40;95.90
2300;DHT22;1158;48.750;9.078;2022-07-23T09:55:51;30.10;96.60
2300;DHT22;1158;48.750;9.078;2022-07-23T09:58:21;30.20;96.50
2300;DHT22;1158;48.750;9.078;2022-07-23T10:00:49;30.70;96.90
2300;DHT22;1158;48.750;9.078;2022-07-23T10:03:17;31.80;96.60
2300;DHT22;1158;48.750;9.078;2022-07-23T10:05:45;32.60;95.10
2300;DHT22;1158;48.750;9.078;2022-07-23T10:08:13;32.80;94.00
2300;DHT22;1158;48.750;9.078;2022-07-23T10:10:40;31.70;93.30
2300;DHT22;1158;48.750;9.078;2022-07-23T10:13:08;31.60;94.60
2300;DHT22;1158;48.750;9.078;2022-07-23T10:15:58;31.60;93.90
2300;DHT22;1158;48.750;9.078;2022-07-23T10:18:25;30.70;94.10
2300;DHT22;1158;48.750;9.078;2022-07-23T10:20:52;30.50;94.30
2300;DHT22;1158;48.750;9.078;2022-07-23T10:23:24;30.70;93.70
2300;DHT22;1158;48.750;9.078;2022-07-23T10:25:59;31.00;93.20
2300;DHT22;1158;48.750;9.078;2022-07-23T10:28:56;30.80;93.00
2300;DHT22;1158;48.750;9.078;2022-07-23T10:31:31;30.40;93.60
2300;DHT22;1158;48.750;9.078;2022-07-23T10:34:17;30.40;93.80
2300;DHT22;1158;48.750;9.078;2022-07-23T10:36:49;31.10;92.90
2300;DHT22;1158;48.750;9.078;2022-07-23T10:39:21;31.30;93.10
2300;DHT22;1158;48.750;9.078;2022-07-23T10:41:48;30.80;93.90
2300;DHT22;1158;48.750;9.078;2022-07-23T10:44:18;31.40;94.30
2300;DHT22;1158;48.750;9.078;2022-07-23T10:46:57;32.20;93.90
2300;DHT22;1158;48.750;9.078;2022-07-23T10:49:31;32.30;92.50
2300;DHT22;1158;48.750;9.078;2022-07-23T10:52:17;32.90;91.50
2300;DHT22;1158;48.750;9.078;2022-07-23T10:54:46;32.20;91.10
2300;DHT22;1158;48.750;9.078;2022-07-23T10:57:15;32.30;91.60
2300;DHT22;1158;48.750;9.078;2022-07-23T11:02:53;31.00;92.90
2300;DHT22;1158;48.750;9.078;2022-07-23T11:05:22;30.40;93.20
2300;DHT22;1158;48.750;9.078;2022-07-23T11:08:12;30.10;94.50
2300;DHT22;1158;48.750;9.078;2022-07-23T11:10:44;30.70;94.40
2300;DHT22;1158;48.750;9.078;2022-07-23T11:13:40;30.60;94.80
2300;DHT22;1158;48.750;9.078;2022-07-23T11:16:21;30.90;93.80
2300;DHT22;1158;48.750;9.078;2022-07-23T11:19:09;30.80;93.80
2300;DHT22;1158;48.750;9.078;2022-07-23T11:21:46;30.40;94.30
2300;DHT22;1158;48.750;9.078;2022-07-23T11:24:20;31.00;94.50
2300;DHT22;1158;48.750;9.078;2022-07-23T11:26:51;31.90;92.70
2300;DHT22;1158;48.750;9.078;2022-07-23T11:29:46;32.60;92.00
2300;DHT22;1158;48.750;9.078;2022-07-23T11:32:44;32.40;91.70
2300;DHT22;1158;48.750;9.078;2022-07-23T11:35:24;31.80;93.20
2300;DHT22;1158;48.750;9.078;2022-07-23T11:37:53;32.30;90.70
2300;DHT22;1158;48.750;9.078;2022-07-23T11:40:24;33.00;87.10
2300;DHT22;1158;48.750;9.078;2022-07-23T11:42:55;31.90;90.10
2300;DHT22;1158;48.750;9.078;2022-07-23T11:45:24;32.40;91.10
2300;DHT22;1158;48.750;9.078;2022-07-23T11:47:51;32.70;90.70
2300;DHT22;1158;48.750;9.078;2022-07-23T11:50:18;32.70;89.70
2300;DHT22;1158;48.750;9.078;2022-07-23T11:52:46;32.60;90.40
2300;DHT22;1158;48.750;9.078;2022-07-23T11:55:12;31.70;91.20
2300;DHT22;1158;48.750;9.078;2022-07-23T11:57:42;31.20;91.20
2300;DHT22;1158;48.750;9.078;2022-07-23T12:00:12;30.30;91.40
2300;DHT22;1158;48.750;9.078;2022-07-23T12:02:39;31.10;91.50
2300;DHT22;1158;48.750;9.078;2022-07-23T12:05:07;32.00;91.30
2300;DHT22;1158;48.750;9.078;2022-07-23T12:07:37;32.00;90.00
2300;DHT22;1158;48.750;9.078;2022-07-23T12:10:10;30.80;91.40
2300;DHT22;1158;48.750;9.078;2022-07-23T12:12:38;30.70;92.20
2300;DHT22;1158;48.750;9.078;2022-07-23T12:15:07;30.60;92.80
2300;DHT22;1158;48.750;9.078;2022-07-23T12:17:36;30.70;91.80
2300;DHT22;1158;48.750;9.078;2022-07-23T12:20:04;31.60;92.20
2300;DHT22;1158;48.750;9.078;2022-07-23T12:22:37;31.50;91.40
2300;DHT22;1158;48.750;9.078;2022-07-23T12:25:11;31.90;90.40
2300;DHT22;1158;48.750;9.078;2022-07-23T12:27:38;32.40;89.80
2300;DHT22;1158;48.750;9.078;2022-07-23T12:30:18;32.50;87.20
2300;DHT22;1158;48.750;9.078;2022-07-23T12:32:46;32.40;90.50
2300;DHT22;1158;48.750;9.078;2022-07-23T12:35:14;32.20;90.00
2300;DHT22;1158;48.750;9.078;2022-07-23T12:37:43;32.20;90.70
2300;DHT22;1158;48.750;9.078;2022-07-23T12:40:24;32.30;90.20
2300;DHT22;1158;48.750;9.078;2022-07-23T12:42:53;32.10;90.40
2300;DHT22;1158;48.750;9.078;2022-07-23T12:45:20;33.10;91.20
2300;DHT22;1158;48.750;9.078;2022-07-23T12:47:57;33.60;90.60
2300;DHT22;1158;48.750;9.078;2022-07-23T12:50:32;34.50;87.70
2300;DHT22;1158;48.750;9.078;2022-07-23T12:53:08;35.00;86.00
2300;DHT22;1158;48.750;9.078;2022-07-23T12:55:37;34.20;85.20
2300;DHT22;1158;48.750;9.078;2022-07-23T12:58:06;33.30;85.20
2300;DHT22;1158;48.750;9.078;2022-07-23T13:03:35;32.60;86.60
2300;DHT22;1158;48.750;9.078;2022-07-23T13:06:05;32.00;88.20
2300;DHT22;1158;48.750;9.078;2022-07-23T13:08:33;32.30;87.10
2300;DHT22;1158;48.750;9.078;2022-07-23T13:11:02;32.90;86.20
2300;DHT22;1158;48.750;9.078;2022-07-23T13:13:31;33.50;86.70
2300;DHT22;1158;48.750;9.078;2022-07-23T13:15:59;33.40;85.10
2300;DHT22;1158;48.750;9.078;2022-07-23T13:18:26;34.40;84.20
2300;DHT22;1158;48.750;9.078;2022-07-23T13:20:53;34.50;82.10
2300;DHT22;1158;48.750;9.078;2022-07-23T13:23:21;34.90;83.50
2300;DHT22;1158;48.750;9.078;2022-07-23T13:25:48;34.60;82.60
2300;DHT22;1158;48.750;9.078;2022-07-23T13:28:17;33.60;84.30
2300;DHT22;1158;48.750;9.078;2022-07-23T13:30:44;33.60;83.60
2300;DHT22;1158;48.750;9.078;2022-07-23T13:33:12;34.40;82.40
2300;DHT22;1158;48.750;9.078;2022-07-23T13:35:38;35.40;81.30
2300;DHT22;1158;48.750;9.078;2022-07-23T13:38:06;35.30;80.00
2300;DHT22;1158;48.750;9.078;2022-07-23T13:40:34;35.90;80.60
2300;DHT22;1158;48.750;9.078;2022-07-23T13:43:02;35.80;78.40
2300;DHT22;1158;48.750;9.078;2022-07-23T13:45:30;35.50;78.80
2300;DHT22;1158;48.750;9.078;2022-07-23T13:47:57;36.00;78.10
2300;DHT22;1158;48.750;9.078;2022-07-23T13:50:23;35.10;79.80
2300;DHT22;1158;48.750;9.078;2022-07-23T13:52:50;34.90;79.10
2300;DHT22;1158;48.750;9.078;2022-07-23T13:55:17;34.30;78.80
2300;DHT22;1158;48.750;9.078;2022-07-23T13:57:44;34.30;78.30
2300;DHT22;1158;48.750;9.078;2022-07-23T14:00:12;32.80;81.50
2300;DHT22;1158;48.750;9.078;2022-07-23T14:02:40;31.60;83.20
2300;DHT22;1158;48.750;9.078;2022-07-23T14:05:09;31.40;84.50
2300;DHT22;1158;48.750;9.078;2022-07-23T14:07:37;31.60;83.90
2300;DHT22;1158;48.750;9.078;2022-07-23T14:10:05;31.60;83.40
2300;DHT22;1158;48.750;9.078;2022-07-23T14:12:32;32.10;84.30
2300;DHT22;1158;48.750;9.078;2022-07-23T14:14:59;32.80;82.80
2300;DHT22;1158;48.750;9.078;2022-07-23T14:17:25;34.30;79.10
2300;DHT22;1158;48.750;9.078;2022-07-23T14:19:54;35.00;79.90
2300;DHT22;1158;48.750;9.078;2022-07-23T14:22:20;35.20;77.10
2300;DHT22;1158;48.750;9.078;2022-07-23T14:24:47;35.40;76.20
2300;DHT22;1158;48.750;9.078;2022-07-23T14:27:14;36.20;74.60
2300;DHT22;1158;48.750;9.078;2022-07-23T14:29:41;36.40;75.00
2300;DHT22;1158;48.750;9.078;2022-07-23T14:32:07;36.10;72.70
2300;DHT22;1158;48.750;9.078;2022-07-23T14:34:35;36.30;72.80
2300;DHT22;1158;48.750;9.078;2022-07-23T14:37:03;35.20;73.30
2300;DHT22;1158;48.750;9.078;2022-07-23T14:39:29;34.70;73.70
2300;DHT22;1158;48.750;9.078;2022-07-23T14:41:56;34.10;74.70
2300;DHT22;1158;48.750;9.078;2022-07-23T14:44:23;34.80;76.10
2300;DHT22;1158;48.750;9.078;2022-07-23T14:46:50;35.20;74.90
2300;DHT22;1158;48.750;9.078;2022-07-23T14:49:17;35.60;72.50
2300;DHT22;1158;48.750;9.078;2022-07-23T14:51:43;35.70;72.40
2300;DHT22;1158;48.750;9.078;2022-07-23T14:54:12;35.80;72.70
2300;DHT22;1158;48.750;9.078;2022-07-23T14:56:39;36.60;72.50
2300;DHT22;1158;48.750;9.078;2022-07-23T14:59:06;36.10;70.10
2300;DHT22;1158;48.750;9.078;2022-07-23T15:01:34;35.20;72.80
2300;DHT22;1158;48.750;9.078;2022-07-23T15:04:01;34.80;73.40
2300;DHT22;1158;48.750;9.078;2022-07-23T15:06:28;34.20;74.80
2300;DHT22;1158;48.750;9.078;2022-07-23T15:08:55;34.90;73.60
2300;DHT22;1158;48.750;9.078;2022-07-23T15:11:23;35.40;73.20
2300;DHT22;1158;48.750;9.078;2022-07-23T15:13:50;35.90;71.40
2300;DHT22;1158;48.750;9.078;2022-07-23T15:16:17;34.80;72.90
2300;DHT22;1158;48.750;9.078;2022-07-23T15:18:43;33.90;75.20
2300;DHT22;1158;48.750;9.078;2022-07-23T15:21:10;33.30;74.90
2300;DHT22;1158;48.750;9.078;2022-07-23T15:23:37;33.50;74.50
2300;DHT22;1158;48.750;9.078;2022-07-23T15:26:05;34.00;75.30
2300;DHT22;1158;48.750;9.078;2022-07-23T15:28:34;34.30;74.80
2300;DHT22;1158;48.750;9.078;2022-07-23T15:31:01;34.30;74.60
2300;DHT22;1158;48.750;9.078;2022-07-23T15:33:28;32.90;75.70
2300;DHT22;1158;48.750;9.078;2022-07-23T15:35:56;32.50;77.70
2300;DHT22;1158;48.750;9.078;2022-07-23T15:38:24;31.90;78.00
2300;DHT22;1158;48.750;9.078;2022-07-23T15:40:52;31.70;79.00
2300;DHT22;1158;48.750;9.078;2022-07-23T15:43:19;31.30;80.40
2300;DHT22;1158;48.750;9.078;2022-07-23T15:45:47;31.80;79.40
2300;DHT22;1158;48.750;9.078;2022-07-23T15:48:14;33.00;77.90
2300;DHT22;1158;48.750;9.078;2022-07-23T15:50:41;33.70;76.00
2300;DHT22;1158;48.750;9.078;2022-07-23T15:53:07;33.60;75.30
2300;DHT22;1158;48.750;9.078;2022-07-23T15:55:34;34.20;76.30
2300;DHT22;1158;48.750;9.078;2022-07-23T15:58:02;34.60;76.20
2300;DHT22;1158;48.750;9.078;2022-07-23T16:00:29;34.50;74.80
2300;DHT22;1158;48.750;9.078;2022-07-23T16:02:57;34.00;74.40
2300;DHT22;1158;48.750;9.078;2022-07-23T16:05:24;33.80;76.00
2300;DHT22;1158;48.750;9.078;2022-07-23T16:07:59;34.00;74.70
2300;DHT22;1158;48.750;9.078;2022-07-23T16:10:26;33.60;75.10
2300;DHT22;1158;48.750;9.078;2022-07-23T16:12:53;32.50;76.70
2300;DHT22;1158;48.750;9.078;2022-07-23T16:15:20;32.30;78.60
2300;DHT22;1158;48.750;9.078;2022-07-23T16:17:47;32.30;78.80